Memorial Village's Hourly Summary for Thursday, May 10, 2018
Hour Temp
(f)
RH
(%)
Solar Rad.
(MJ/m2)
Rainfall
(in)
Wind
(mph)
5/10/2018 12:00 AM 71 78 0 0 0.15
5/10/2018 1:00 AM 70 83 0 0 0.13
5/10/2018 2:00 AM 68 87 0 0 0.02
5/10/2018 3:00 AM 67 90 0 0 0.01
5/10/2018 4:00 AM 66 94 0 0 0
5/10/2018 5:00 AM 67 94 0 0 0.01
5/10/2018 6:00 AM 65 95 0.02 0 0
5/10/2018 7:00 AM 66 95 0.11 0 0
5/10/2018 8:00 AM 73 71 0.58 0 0.53
5/10/2018 9:00 AM 78 57 1.56 0 2
5/10/2018 10:00 AM 81 47 2.54 0 2.45
5/10/2018 11:00 AM 84 40 3.04 0 2.48
5/10/2018 12:00 PM 86 38 3.37 0 2.91
5/10/2018 1:00 PM 87 37 2.68 0 2.46
5/10/2018 2:00 PM 87 37 2.55 0 2.54
5/10/2018 3:00 PM 87 40 2.4 0 2.31
5/10/2018 4:00 PM 86 42 1.78 0 3.19
5/10/2018 5:00 PM 85 41 1.47 0 2.86
5/10/2018 6:00 PM 83 40 0.81 0 2.16
5/10/2018 7:00 PM 81 43 0.14 0 2.17
5/10/2018 8:00 PM 78 48 0 0 1.34
5/10/2018 9:00 PM 77 54 0 0 0.5
5/10/2018 10:00 PM 75 66 0 0 0.71
5/10/2018 11:00 PM 74 78 0 0 0.66
Data Summary 76 62 23.05 0.00 1.32